Time;durP1;ratioP1;P1;durP2;ratioP2;P2;SDS_P1;SDS_P2;PMS_P1;PMS_P2;Temp;Humidity;BMP_temperature;BMP_pressure;BME280_temperature;BME280_humidity;BME280_pressure;Samples;Min_cycle;Max_cycle;Signal;HPM_P1;HPM_P2
2023/12/07 00:00:38;;;;;;;43.03;31.80;;;;;;;;;;5059928;28;20021;-60
2023/12/07 00:03:06;;;;;;;48.73;32.13;;;;;;;;;;5073040;28;20032;-60
2023/12/07 00:05:33;;;;;;;42.50;31.17;;;;;;;;;;5072382;28;20028;-60
2023/12/07 00:07:59;;;;;;;42.93;31.93;;;;;;;;;;5058983;28;20466;-60
2023/12/07 00:10:25;;;;;;;41.97;32.17;;;;;;;;;;5071597;28;20036;-60
2023/12/07 00:12:51;;;;;;;43.47;31.80;;;;;;;;;;5072877;28;20028;-60
2023/12/07 00:15:17;;;;;;;42.53;31.10;;;;;;;;;;5063907;28;20029;-60
2023/12/07 00:17:43;;;;;;;43.00;30.80;;;;;;;;;;5072170;28;20048;-61
2023/12/07 00:20:09;;;;;;;44.03;31.37;;;;;;;;;;5065278;28;20033;-60
2023/12/07 00:22:35;;;;;;;43.93;32.30;;;;;;;;;;5060783;28;20114;-60
2023/12/07 00:25:01;;;;;;;44.40;31.80;;;;;;;;;;5062960;28;20029;-60
2023/12/07 00:27:27;;;;;;;42.13;31.63;;;;;;;;;;5068398;28;20021;-60
2023/12/07 00:29:53;;;;;;;47.63;33.40;;;;;;;;;;5072375;28;20451;-60
2023/12/07 00:32:19;;;;;;;41.83;31.93;;;;;;;;;;5073037;28;20090;-60
2023/12/07 00:34:45;;;;;;;39.53;29.73;;;;;;;;;;5071063;28;20075;-60
2023/12/07 00:37:11;;;;;;;40.27;29.27;;;;;;;;;;5057298;28;20108;-60
2023/12/07 00:39:37;;;;;;;41.17;29.37;;;;;;;;;;5071235;28;20023;-59
2023/12/07 00:42:04;;;;;;;39.57;28.47;;;;;;;;;;5059222;28;20028;-59
2023/12/07 00:44:30;;;;;;;39.23;28.80;;;;;;;;;;5062432;28;20045;-59
2023/12/07 00:46:56;;;;;;;39.87;30.80;;;;;;;;;;5067456;28;20497;-60
2023/12/07 00:49:22;;;;;;;36.07;29.00;;;;;;;;;;5060700;28;20075;-60
2023/12/07 00:51:48;;;;;;;35.77;28.77;;;;;;;;;;5066275;28;20021;-59
2023/12/07 00:54:13;;;;;;;39.90;30.50;;;;;;;;;;5060829;28;20039;-59
2023/12/07 00:56:39;;;;;;;38.27;28.87;;;;;;;;;;5071663;28;20377;-59
2023/12/07 00:59:06;;;;;;;39.80;29.10;;;;;;;;;;5072218;28;20036;-59
2023/12/07 01:01:32;;;;;;;39.13;29.93;;;;;;;;;;5072508;28;20033;-59
2023/12/07 01:03:58;;;;;;;40.97;30.50;;;;;;;;;;5071840;28;20115;-59
2023/12/07 01:06:24;;;;;;;38.33;28.73;;;;;;;;;;5070396;28;20016;-59
2023/12/07 01:08:50;;;;;;;39.23;30.37;;;;;;;;;;5071821;28;20466;-59
2023/12/07 01:11:16;;;;;;;39.87;30.10;;;;;;;;;;5070715;28;20025;-59
2023/12/07 01:13:42;;;;;;;37.60;29.93;;;;;;;;;;5070622;28;20465;-59
2023/12/07 01:16:08;;;;;;;35.77;28.73;;;;;;;;;;5061889;28;20052;-59
2023/12/07 01:18:34;;;;;;;40.13;29.93;;;;;;;;;;5071198;28;20040;-60
2023/12/07 01:21:00;;;;;;;38.97;29.70;;;;;;;;;;5071754;28;20124;-59
2023/12/07 01:23:26;;;;;;;38.70;28.60;;;;;;;;;;5072001;28;20055;-59
2023/12/07 01:25:52;;;;;;;40.47;28.37;;;;;;;;;;5060019;28;20028;-60
2023/12/07 01:28:18;;;;;;;40.03;28.63;;;;;;;;;;5071021;28;20124;-59
2023/12/07 01:30:44;;;;;;;42.43;30.93;;;;;;;;;;5070390;28;20485;-60
2023/12/07 01:33:10;;;;;;;42.77;30.70;;;;;;;;;;5070978;28;20029;-62
2023/12/07 01:35:36;;;;;;;41.23;29.93;;;;;;;;;;5071750;28;20029;-59
2023/12/07 01:38:02;;;;;;;45.13;31.47;;;;;;;;;;5071804;28;20103;-59
2023/12/07 01:40:28;;;;;;;43.50;30.67;;;;;;;;;;5058258;28;20029;-59
2023/12/07 01:42:54;;;;;;;44.77;31.93;;;;;;;;;;5066729;28;20025;-62
2023/12/07 01:45:20;;;;;;;45.40;33.10;;;;;;;;;;5071792;28;20040;-60
2023/12/07 01:47:47;;;;;;;42.23;32.47;;;;;;;;;;5071528;28;20036;-59
2023/12/07 01:50:17;;;;;;;42.40;33.60;;;;;;;;;;5066407;28;20099;-59
2023/12/07 01:52:45;;;;;;;49.57;34.43;;;;;;;;;;5065881;28;20025;-59
2023/12/07 01:55:11;;;;;;;43.60;33.03;;;;;;;;;;5060566;28;20112;-59
2023/12/07 01:57:37;;;;;;;51.90;34.37;;;;;;;;;;5061493;28;20032;-60
2023/12/07 02:00:06;;;;;;;44.47;34.83;;;;;;;;;;5072873;28;20067;-59
2023/12/07 02:02:33;;;;;;;45.53;34.57;;;;;;;;;;5074322;28;20457;-59
2023/12/07 02:04:59;;;;;;;47.80;34.33;;;;;;;;;;5075329;28;20039;-59
2023/12/07 02:07:26;;;;;;;48.47;34.47;;;;;;;;;;5074965;28;20096;-59
2023/12/07 02:09:52;;;;;;;45.63;33.17;;;;;;;;;;5074561;28;20111;-59
2023/12/07 02:12:19;;;;;;;48.60;33.53;;;;;;;;;;5075302;28;20031;-59
2023/12/07 02:14:45;;;;;;;44.23;34.07;;;;;;;;;;5074063;28;20029;-59
2023/12/07 02:17:11;;;;;;;45.93;33.90;;;;;;;;;;5060283;28;20526;-59
2023/12/07 02:19:48;;;;;;;42.03;33.70;;;;;;;;;;5074560;28;20062;-60
2023/12/07 02:22:18;;;;;;;46.97;34.03;;;;;;;;;;5072846;28;20028;-59
2023/12/07 02:24:48;;;;;;;42.67;33.43;;;;;;;;;;5069667;28;20032;-59
2023/12/07 02:27:14;;;;;;;47.37;35.73;;;;;;;;;;5067273;28;20029;-59
2023/12/07 02:29:40;;;;;;;47.57;34.03;;;;;;;;;;5073074;28;20035;-59
2023/12/07 02:32:06;;;;;;;44.07;34.07;;;;;;;;;;5073336;28;20366;-59
2023/12/07 02:34:32;;;;;;;48.00;35.57;;;;;;;;;;5067142;28;20077;-59
2023/12/07 02:36:59;;;;;;;49.17;36.33;;;;;;;;;;5063400;28;20108;-59
2023/12/07 02:39:25;;;;;;;48.43;36.83;;;;;;;;;;5064331;28;20055;-59
2023/12/07 02:41:53;;;;;;;50.27;36.83;;;;;;;;;;5072723;28;20162;-60
2023/12/07 02:44:19;;;;;;;47.20;36.57;;;;;;;;;;5066319;28;20051;-59
2023/12/07 02:46:45;;;;;;;50.50;36.07;;;;;;;;;;5073804;28;20038;-59
2023/12/07 02:49:11;;;;;;;51.47;37.17;;;;;;;;;;5058820;28;20040;-60
2023/12/07 02:51:37;;;;;;;46.77;36.63;;;;;;;;;;5066259;28;20074;-59
2023/12/07 02:54:03;;;;;;;49.53;36.93;;;;;;;;;;5065851;28;20104;-59
2023/12/07 02:56:29;;;;;;;48.23;37.37;;;;;;;;;;5072283;28;20031;-59
2023/12/07 02:58:55;;;;;;;46.67;37.03;;;;;;;;;;5062763;28;20036;-59
2023/12/07 03:01:21;;;;;;;49.93;38.37;;;;;;;;;;5074168;28;20382;-59
2023/12/07 03:03:47;;;;;;;52.97;38.80;;;;;;;;;;5064696;28;20036;-59
2023/12/07 03:06:13;;;;;;;51.10;38.07;;;;;;;;;;5073733;28;20040;-59
2023/12/07 03:08:39;;;;;;;50.83;38.17;;;;;;;;;;5074001;28;20033;-60
2023/12/07 03:11:05;;;;;;;51.87;39.57;;;;;;;;;;5072720;28;20032;-59
2023/12/07 03:13:32;;;;;;;53.63;39.60;;;;;;;;;;5065537;28;20021;-59
2023/12/07 03:15:58;;;;;;;56.10;40.07;;;;;;;;;;5064223;28;20551;-59
2023/12/07 03:18:25;;;;;;;50.70;39.00;;;;;;;;;;5073378;28;20031;-59
2023/12/07 03:20:51;;;;;;;51.40;40.73;;;;;;;;;;5066295;28;20039;-59
2023/12/07 03:23:17;;;;;;;53.53;39.97;;;;;;;;;;5073822;28;20036;-59
2023/12/07 03:25:43;;;;;;;54.30;40.83;;;;;;;;;;5060350;28;20013;-60
2023/12/07 03:28:09;;;;;;;55.80;39.43;;;;;;;;;;5070407;28;20025;-59
2023/12/07 03:30:35;;;;;;;54.03;40.10;;;;;;;;;;5058017;28;20511;-59
2023/12/07 03:33:01;;;;;;;52.20;39.60;;;;;;;;;;5070604;28;20199;-59
2023/12/07 03:35:27;;;;;;;52.57;40.73;;;;;;;;;;5069596;28;20094;-59
2023/12/07 03:37:53;;;;;;;54.03;40.03;;;;;;;;;;5072787;28;20028;-59
2023/12/07 03:40:19;;;;;;;50.87;40.40;;;;;;;;;;5061188;28;20104;-59
2023/12/07 03:42:45;;;;;;;55.30;40.83;;;;;;;;;;5067882;28;20108;-60
2023/12/07 03:45:11;;;;;;;53.70;40.07;;;;;;;;;;5065262;28;20048;-59
2023/12/07 03:47:36;;;;;;;52.97;39.77;;;23.60;99.90;;;;;;5069424;28;20548;-59
2023/12/07 03:50:02;;;;;;;54.00;39.30;;;23.40;99.90;;;;;;5073784;28;20052;-60
2023/12/07 03:52:28;;;;;;;55.90;41.37;;;23.40;99.90;;;;;;5072373;28;20025;-59
2023/12/07 03:54:53;;;;;;;58.60;42.63;;;23.30;99.90;;;;;;5073698;28;20032;-59
2023/12/07 03:57:19;;;;;;;50.97;39.80;;;23.30;99.90;;;;;;5068825;28;20021;-59
2023/12/07 03:59:46;;;;;;;54.67;40.77;;;23.30;99.90;;;;;;5071763;28;20378;-59
2023/12/07 04:02:12;;;;;;;54.23;41.03;;;23.30;99.90;;;;;;5072994;28;20105;-60
2023/12/07 04:04:38;;;;;;;59.10;42.70;;;23.30;99.90;;;;;;5073222;28;20063;-59
2023/12/07 04:07:04;;;;;;;54.57;41.37;;;23.30;99.90;;;;;;5071001;28;20308;-59
2023/12/07 04:09:30;;;;;;;54.47;40.67;;;23.20;99.90;;;;;;5067935;28;20037;-59
2023/12/07 04:11:56;;;;;;;57.50;42.90;;;;;;;;;;5070503;28;20458;-59
2023/12/07 04:14:22;;;;;;;54.30;42.03;;;;;;;;;;5059389;28;20025;-60
2023/12/07 04:16:48;;;;;;;57.43;43.03;;;;;;;;;;5071823;28;20051;-61
2023/12/07 04:19:14;;;;;;;53.27;42.40;;;;;;;;;;5072855;28;20030;-59
2023/12/07 04:21:40;;;;;;;53.07;40.00;;;;;;;;;;5072924;28;20095;-59
2023/12/07 04:24:06;;;;;;;53.00;43.20;;;;;;;;;;5070309;28;20028;-59
2023/12/07 04:26:32;;;;;;;55.23;43.03;;;;;;;;;;5065833;28;20443;-59
2023/12/07 04:28:58;;;;;;;56.73;41.63;;;;;;;;;;5070147;28;20120;-59
2023/12/07 04:31:24;;;;;;;53.73;40.03;;;;;;;;;;5069191;28;20024;-59
2023/12/07 04:33:51;;;;;;;55.40;41.67;;;;;;;;;;5068008;28;20056;-59
2023/12/07 04:36:17;;;;;;;56.97;42.63;;;;;;;;;;5070632;28;20012;-59
2023/12/07 04:38:42;;;;;;;55.70;41.10;;;;;;;;;;5059431;28;20116;-59
2023/12/07 04:41:08;;;;;;;55.37;42.20;;;;;;;;;;5062839;28;20054;-59
2023/12/07 04:43:34;;;;;;;50.83;40.90;;;;;;;;;;5058359;28;20064;-59
2023/12/07 04:46:00;;;;;;;54.70;40.77;;;;;;;;;;5072310;28;20024;-59
2023/12/07 04:48:26;;;;;;;58.17;43.53;;;;;;;;;;5063844;28;20092;-59
2023/12/07 04:50:52;;;;;;;54.77;41.90;;;;;;;;;;5066333;28;20025;-59
2023/12/07 04:53:18;;;;;;;57.10;43.00;;;;;;;;;;5072466;28;20024;-59
2023/12/07 04:55:48;;;;;;;55.87;41.07;;;;;;;;;;5058982;28;20025;-59
2023/12/07 04:58:15;;;;;;;53.73;40.80;;;;;;;;;;5068594;28;20024;-59
2023/12/07 05:00:41;;;;;;;49.50;40.70;;;;;;;;;;5058088;28;20021;-59
2023/12/07 05:03:08;;;;;;;51.77;40.10;;;;;;;;;;5052342;28;20355;-59
2023/12/07 05:05:34;;;;;;;52.67;41.70;;;;;;;;;;5076973;28;20527;-59
2023/12/07 05:08:00;;;;;;;54.53;40.27;;;;;;;;;;5072343;28;20037;-59
2023/12/07 05:10:25;;;;;;;51.30;40.47;;;;;;;;;;5072434;28;20024;-59
2023/12/07 05:12:51;;;;;;;52.07;39.73;;;;;;;;;;5058187;28;20025;-59
2023/12/07 05:15:17;;;;;;;47.53;37.00;;;;;;;;;;5052052;28;20036;-60
2023/12/07 05:17:43;;;;;;;51.13;38.13;;;;;;;;;;5057087;28;20454;-59
2023/12/07 05:20:12;;;;;;;48.20;37.37;;;;;;;;;;5082981;28;20107;-60
2023/12/07 05:22:38;;;;;;;49.53;38.00;;;;;;;;;;5070765;28;20536;-60
2023/12/07 05:25:04;;;;;;;46.97;36.23;;;;;;;;;;5071480;28;20477;-59
2023/12/07 05:27:30;;;;;;;47.60;36.97;;;;;;;;;;5065435;28;20108;-60
2023/12/07 05:29:56;;;;;;;43.20;35.20;;;;;;;;;;5065680;28;20044;-59
2023/12/07 05:32:22;;;;;;;47.50;37.30;;;;;;;;;;5070485;28;20417;-59
2023/12/07 05:34:50;;;;;;;43.07;34.57;;;;;;;;;;5063091;28;20072;-60
2023/12/07 05:37:16;;;;;;;43.17;34.50;;;;;;;;;;5066877;28;20031;-59
2023/12/07 05:39:42;;;;;;;44.13;33.17;;;;;;;;;;5058193;28;20389;-59
2023/12/07 05:42:08;;;;;;;42.40;33.33;;;;;;;;;;5068872;28;20108;-59
2023/12/07 05:44:34;;;;;;;44.63;35.10;;;;;;;;;;5071761;28;20489;-60
2023/12/07 05:47:00;;;;;;;42.57;33.13;;;;;;;;;;5070471;28;20126;-60
2023/12/07 05:49:26;;;;;;;43.90;33.87;;;;;;;;;;5059997;28;20071;-59
2023/12/07 05:51:52;;;;;;;42.47;33.20;;;;;;;;;;5065382;28;20025;-59
2023/12/07 05:54:20;;;;;;;44.30;32.60;;;;;;;;;;5060104;28;20020;-59
2023/12/07 05:56:46;;;;;;;45.40;34.93;;;;;;;;;;5071751;28;20124;-59
2023/12/07 05:59:12;;;;;;;44.37;32.97;;;;;;;;;;5065153;28;20058;-59
2023/12/07 06:01:38;;;;;;;43.80;34.27;;;;;;;;;;5068173;28;20082;-59
2023/12/07 06:04:04;;;;;;;44.30;34.40;;;;;;;;;;5062636;28;20021;-59
2023/12/07 06:06:30;;;;;;;43.67;34.17;;;;;;;;;;5070907;28;20032;-60
2023/12/07 06:08:56;;;;;;;45.17;33.13;;;;;;;;;;5071523;28;20032;-60
2023/12/07 06:11:22;;;;;;;45.07;33.07;;;;;;;;;;5069733;28;20023;-59
2023/12/07 06:13:48;;;;;;;42.93;32.57;;;;;;;;;;5071641;28;20097;-59
2023/12/07 06:16:14;;;;;;;38.57;31.13;;;;;;;;;;5070800;28;20016;-60
2023/12/07 06:18:40;;;;;;;44.10;32.30;;;;;;;;;;5058728;28;20094;-59
2023/12/07 06:21:06;;;;;;;44.17;31.53;;;;;;;;;;5076931;28;20411;-59
2023/12/07 06:23:33;;;;;;;41.47;32.17;;;;;;;;;;5071470;28;20489;-59
2023/12/07 06:25:59;;;;;;;38.77;30.87;;;;;;;;;;5066348;28;20032;-59
2023/12/07 06:28:26;;;;;;;41.33;30.57;;;;;;;;;;5067415;28;20041;-59
2023/12/07 06:30:52;;;;;;;43.03;30.43;;;;;;;;;;5061136;28;20040;-59
2023/12/07 06:33:18;;;;;;;36.13;30.43;;;;;;;;;;5056022;28;20020;-59
2023/12/07 06:35:46;;;;;;;41.77;31.80;;;;;;;;;;5060326;28;20478;-59
2023/12/07 06:38:12;;;;;;;39.73;31.40;;;;;;;;;;5071278;28;20055;-60
2023/12/07 06:40:38;;;;;;;39.57;31.07;;;;;;;;;;5061895;28;20024;-60
2023/12/07 06:43:04;;;;;;;44.33;32.97;;;;;;;;;;5058328;28;20033;-60
2023/12/07 06:45:30;;;;;;;44.43;33.97;;;;;;;;;;5070514;28;20457;-59
2023/12/07 06:47:56;;;;;;;43.87;34.43;;;;;;;;;;5063841;28;20052;-59
2023/12/07 06:50:22;;;;;;;44.60;34.47;;;;;;;;;;5072052;28;20020;-60
2023/12/07 06:52:48;;;;;;;42.07;34.00;;;;;;;;;;5074819;28;20067;-60
2023/12/07 06:55:15;;;;;;;51.37;36.37;;;;;;;;;;5064307;28;20025;-60
2023/12/07 06:57:41;;;;;;;52.27;36.43;;;;;;;;;;5069739;28;20021;-59
2023/12/07 07:00:10;;;;;;;46.37;35.63;;;;;;;;;;5071277;28;20029;-60
2023/12/07 07:02:36;;;;;;;48.27;34.67;;;;;;;;;;5057485;28;20056;-59
2023/12/07 07:05:02;;;;;;;45.23;36.27;;;;;;;;;;5058497;28;20039;-59
2023/12/07 07:07:31;;;;;;;47.00;36.47;;;;;;;;;;5062549;28;20131;-59
2023/12/07 07:09:57;;;;;;;45.60;34.80;;;;;;;;;;5072971;28;20395;-59
2023/12/07 07:12:23;;;;;;;46.23;35.77;;;;;;;;;;5067752;28;20025;-59
2023/12/07 07:14:49;;;;;;;41.47;34.40;;;;;;;;;;5071275;28;20029;-59
2023/12/07 07:17:15;;;;;;;47.20;35.33;;;;;;;;;;5074623;28;20174;-60
2023/12/07 07:19:41;;;;;;;45.67;33.80;;;;;;;;;;5073405;28;20102;-60
2023/12/07 07:22:09;;;;;;;45.57;33.63;;;;;;;;;;5074267;28;20028;-60
2023/12/07 07:24:35;;;;;;;39.57;32.03;;;;;;;;;;5060814;28;20111;-60
2023/12/07 07:27:01;;;;;;;45.20;33.17;;;;;;;;;;5063441;28;20033;-60
2023/12/07 07:29:27;;;;;;;42.77;31.93;;;;;;;;;;5055951;28;20386;-59
2023/12/07 07:31:53;;;;;;;39.50;29.87;;;;;;;;;;5055871;28;20119;-59
2023/12/07 07:34:19;;;;;;;36.83;29.23;;;;;;;;;;5061822;28;20086;-59
2023/12/07 07:36:45;;;;;;;40.30;30.63;;;;;;;;;;5066058;28;20035;-60
2023/12/07 07:39:13;;;;;;;37.57;27.97;;;;;;;;;;5068307;28;20021;-60
2023/12/07 07:41:39;;;;;;;38.97;28.60;;;;;;;;;;5059805;28;20065;-59
2023/12/07 07:44:05;;;;;;;40.00;28.27;;;;;;;;;;5070354;28;20057;-59
2023/12/07 07:46:31;;;;;;;35.63;27.40;;;;;;;;;;5070885;28;20028;-59
2023/12/07 07:48:57;;;;;;;33.97;26.53;;;;;;;;;;5058477;28;20183;-59
2023/12/07 07:51:23;;;;;;;30.50;26.57;;;;;;;;;;5062859;28;20047;-59
2023/12/07 07:53:49;;;;;;;38.13;28.40;;;;;;;;;;5071812;28;20033;-59
2023/12/07 07:56:15;;;;;;;37.33;26.43;;;;;;;;;;5059129;28;20040;-59
2023/12/07 07:58:41;;;;;;;39.17;26.90;;;;;;;;;;5053743;28;20036;-59
2023/12/07 08:01:07;;;;;;;35.10;27.50;;;;;;;;;;5052982;28;20327;-59
2023/12/07 08:03:33;;;;;;;30.97;24.47;;;;;;;;;;5061971;28;20020;-59
2023/12/07 08:06:00;;;;;;;30.03;23.23;;;;;;;;;;5065345;28;20019;-59
2023/12/07 08:08:26;;;;;;;33.17;25.57;;;;;;;;;;5069488;28;20098;-59
2023/12/07 08:10:52;;;;;;;30.23;24.00;;;;;;;;;;5066978;28;20037;-59
2023/12/07 08:13:18;;;;;;;35.90;27.17;;;;;;;;;;5062821;28;20048;-59
2023/12/07 08:15:44;;;;;;;36.43;25.13;;;;;;;;;;5064396;28;20482;-59
2023/12/07 08:18:10;;;;;;;35.57;25.67;;;;;;;;;;5066606;28;20166;-59
2023/12/07 08:20:36;;;;;;;34.13;25.00;;;;;;;;;;5066019;28;20029;-59
2023/12/07 08:23:02;;;;;;;33.93;26.27;;;;;;;;;;5070484;28;20024;-59
2023/12/07 08:25:28;;;;;;;31.87;25.00;;;;;;;;;;5069826;28;20031;-59
2023/12/07 08:27:54;;;;;;;33.20;26.47;;;;;;;;;;5063488;28;20065;-59
2023/12/07 08:30:20;;;;;;;32.97;25.80;;;;;;;;;;5061083;28;20540;-59
2023/12/07 08:32:46;;;;;;;36.13;26.10;;;;;;;;;;5060642;28;20047;-59
2023/12/07 08:35:12;;;;;;;34.47;26.97;;;;;;;;;;5058910;28;20100;-59
2023/12/07 08:37:39;;;;;;;35.43;28.17;;;;;;;;;;5070095;28;20025;-59
2023/12/07 08:40:06;;;;;;;38.97;29.83;;;;;;;;;;5071769;28;20415;-60
2023/12/07 08:42:32;;;;;;;36.97;29.10;;;;;;;;;;5071541;28;20040;-61
2023/12/07 08:44:58;;;;;;;40.70;30.60;;;;;;;;;;5056612;28;20174;-59
2023/12/07 08:47:27;;;;;;;43.63;31.73;;;;;;;;;;5074672;28;20104;-59
2023/12/07 08:49:53;;;;;;;40.80;30.27;;;;;;;;;;5067685;28;20454;-59
2023/12/07 08:52:19;;;;;;;38.20;29.63;;;;;;;;;;5072321;28;20035;-60
2023/12/07 08:54:45;;;;;;;38.90;30.37;;;;;;;;;;5071816;28;20036;-59
2023/12/07 08:57:11;;;;;;;39.03;29.60;;;;;;;;;;5067916;28;20043;-59
2023/12/07 08:59:37;;;;;;;40.00;30.30;;;;;;;;;;5065653;28;20024;-59
2023/12/07 09:02:03;;;;;;;39.40;30.23;;;;;;;;;;5062900;28;20406;-59
2023/12/07 09:04:29;;;;;;;39.73;30.10;;;;;;;;;;5063765;28;20436;-59
2023/12/07 09:06:56;;;;;;;39.37;29.13;;;;;;;;;;5067267;28;20052;-59
2023/12/07 09:09:23;;;;;;;39.73;30.37;;;;;;;;;;5066122;28;20042;-64
2023/12/07 09:11:49;;;;;;;36.77;29.77;;;;;;;;;;5061819;28;20427;-59
2023/12/07 09:14:15;;;;;;;39.00;29.70;;;;;;;;;;5066018;28;20085;-60
2023/12/07 09:16:47;;;;;;;38.77;31.23;;;;;;;;;;5056940;28;20021;-59
2023/12/07 09:19:14;;;;;;;39.27;31.33;;;;;;;;;;5062989;28;20181;-59
2023/12/07 09:21:42;;;;;;;39.67;31.73;;;;;;;;;;5067269;28;20077;-59
2023/12/07 09:24:08;;;;;;;41.97;32.97;;;;;;;;;;5060722;28;20112;-59
2023/12/07 09:26:34;;;;;;;41.47;33.53;;;;;;;;;;5063856;28;20029;-59
2023/12/07 09:29:00;;;;;;;42.73;33.27;;;;;;;;;;5056132;28;20060;-59
2023/12/07 09:31:27;;;;;;;44.60;34.20;;;;;;;;;;5066348;28;20496;-59
2023/12/07 09:33:53;;;;;;;43.47;33.93;;;;;;;;;;5068640;28;20116;-61
2023/12/07 09:36:21;;;;;;;46.00;33.40;;;;;;;;;;5061509;28;20529;-59
2023/12/07 09:38:47;;;;;;;40.97;35.00;;;;;;;;;;5052272;28;20474;-59
2023/12/07 09:41:13;;;;;;;42.00;33.40;;;;;;;;;;5071671;28;20013;-59
2023/12/07 09:43:39;;;;;;;52.10;33.77;;;;;;;;;;5071713;28;20132;-59
2023/12/07 09:46:06;;;;;;;45.97;33.90;;;;;;;;;;5071733;28;20017;-59
2023/12/07 09:48:32;;;;;;;37.53;33.23;;;;;;;;;;5071149;28;20474;-59
2023/12/07 09:51:00;;;;;;;47.20;35.27;;;;;;;;;;5071512;28;20025;-59
2023/12/07 09:53:28;;;;;;;47.93;36.20;;;;;;;;;;5070833;28;20024;-59
2023/12/07 09:55:54;;;;;;;45.33;34.37;;;;;;;;;;5069630;28;20027;-59
2023/12/07 09:58:20;;;;;;;39.90;33.47;;;;;;;;;;5071248;28;20013;-59
2023/12/07 10:00:47;;;;;;;32.40;24.83;;;;;;;;;;5071337;28;20060;-59
2023/12/07 10:03:21;;;;;;;26.67;20.23;;;;;;;;;;5071830;28;20017;-59
2023/12/07 10:05:55;;;;;;;28.80;20.70;;;;;;;;;;5071993;28;20028;-58
2023/12/07 10:08:27;;;;;;;22.77;18.90;;;;;;;;;;5071215;28;20452;-59
2023/12/07 10:11:04;;;;;;;25.57;17.53;;;;;;;;;;5071491;28;20020;-59
2023/12/07 10:13:31;;;;;;;22.50;17.57;;;;;;;;;;5071352;28;20474;-59
2023/12/07 10:16:09;;;;;;;21.30;17.23;;;;;;;;;;5071520;28;20052;-59
2023/12/07 10:18:36;;;;;;;23.80;18.70;;;;;;;;;;5069943;28;20020;-59
2023/12/07 10:21:02;;;;;;;21.03;18.23;;;;;;;;;;5065349;28;20068;-59
2023/12/07 10:23:31;;;;;;;23.27;16.97;;;;;;;;;;5075258;28;20032;-60
2023/12/07 10:25:59;;;;;;;19.93;16.63;;;;;;;;;;5075393;28;20037;-60
2023/12/07 10:28:25;;;;;;;22.67;17.87;;;;;;;;;;5073155;28;20029;-60
2023/12/07 10:30:51;;;;;;;23.97;17.97;;;;;;;;;;5075103;28;20018;-59
2023/12/07 10:33:19;;;;;;;22.27;19.30;;;;;;;;;;5075428;28;20028;-59
2023/12/07 10:35:45;;;;;;;26.13;19.40;;;;;;;;;;5060975;28;20019;-59
2023/12/07 10:38:12;;;;;;;30.87;20.67;;;;;;;;;;5075006;28;20450;-59
2023/12/07 10:40:38;;;;;;;25.83;20.00;;;;;;;;;;5073108;28;20066;-59
2023/12/07 10:43:05;;;;;;;23.80;19.87;;;;;;;;;;5074069;28;20058;-59
2023/12/07 10:45:32;;;;;;;25.57;21.30;;;;;;;;;;5074870;28;20043;-59
2023/12/07 10:48:07;;;;;;;25.63;20.37;;;;;;;;;;5066444;28;20025;-59
2023/12/07 10:50:44;;;;;;;29.07;22.17;;;;;;;;;;5068627;28;20021;-59
2023/12/07 10:53:12;;;;;;;23.90;20.73;;;;;;;;;;5072067;28;20481;-60
2023/12/07 10:55:43;;;;;;;24.20;18.17;;;;;;;;;;5071619;28;20021;-59
2023/12/07 10:58:10;;;;;;;24.23;19.43;;;;;;;;;;5071073;28;20013;-60
2023/12/07 11:00:36;;;;;;;23.37;19.07;;;;;;;;;;5062896;28;20128;-60
2023/12/07 11:03:03;;;;;;;24.27;19.63;;;;;;;;;;5064569;28;20054;-59
2023/12/07 11:05:30;;;;;;;23.90;18.83;;;;;;;;;;5065383;28;20024;-60
2023/12/07 11:08:03;;;;;;;20.67;16.80;;;;;;;;;;5063630;28;20025;-59
2023/12/07 11:10:37;;;;;;;21.27;17.90;;;;;;;;;;5060289;28;20024;-59
2023/12/07 11:13:11;;;;;;;26.87;20.80;;;;;;;;;;5065628;28;20025;-59
2023/12/07 11:15:37;;;;;;;;;;;;;;;;;;5057247;28;20033;-59
2023/12/07 11:18:03;;;;;;;23.60;17.93;;;;;;;;;;5074332;28;19904;-59
2023/12/07 11:20:44;;;;;;;25.00;19.30;;;;;;;;;;5074304;28;20170;-59
2023/12/07 11:23:10;;;;;;;21.57;19.27;;;;;;;;;;5074390;28;20027;-59
2023/12/07 11:25:39;;;;;;;25.03;20.10;;;;;;;;;;5074311;28;20354;-59
2023/12/07 11:28:07;;;;;;;23.77;18.80;;;;;;;;;;5072742;28;20109;-60
2023/12/07 11:30:35;;;;;;;26.03;20.13;;;;;;;;;;5061612;28;20061;-59
2023/12/07 11:33:01;;;;;;;26.13;20.63;;;;;;;;;;5054035;28;20063;-60
2023/12/07 11:35:27;;;;;;;22.87;17.80;;;;;;;;;;5054584;28;20028;-60
2023/12/07 11:38:11;;;;;;;23.80;18.27;;;;;;;;;;5056822;28;20050;-59
2023/12/07 11:40:41;;;;;;;19.30;16.73;;;;;;;;;;5073930;28;20481;-59
2023/12/07 11:43:07;;;;;;;18.07;15.67;;;;;;;;;;5073634;28;20013;-59
2023/12/07 11:45:37;;;;;;;16.27;14.13;;;;;;;;;;5072654;28;20025;-59
2023/12/07 11:48:06;;;;;;;16.73;14.10;;;;;;;;;;5073618;28;20032;-60
2023/12/07 11:50:32;;;;;;;18.40;13.57;;;;;;;;;;5072425;28;20063;-60
2023/12/07 11:52:59;;;;;;;14.83;12.67;;;;;;;;;;5072308;28;20058;-60
2023/12/07 11:55:25;;;;;;;17.97;14.40;;;;;;;;;;5073399;28;20359;-60
2023/12/07 11:57:51;;;;;;;15.27;13.10;;;;;;;;;;5073773;28;20040;-60
2023/12/07 12:00:18;;;;;;;22.40;14.75;;;;;;;;;;5073356;28;20028;-60
2023/12/07 12:02:48;;;;;;;19.03;14.60;;;;;;;;;;5073468;28;20020;-60
2023/12/07 12:05:13;;;;;;;19.80;14.60;;;;;;;;;;5057901;28;20182;-60
2023/12/07 12:07:40;;;;;;;16.50;14.43;;;;;;;;;;5073520;28;20191;-60
2023/12/07 12:10:06;;;;;;;19.38;14.90;;;;;;;;;;5073049;28;20478;-60
2023/12/07 12:12:35;;;;;;;16.10;13.23;;;;;;;;;;5073209;28;20466;-60
2023/12/07 12:15:01;;;;;;;20.90;15.07;;;;;;;;;;5073276;28;20421;-59
2023/12/07 12:17:27;;;;;;;19.33;15.23;;;;;;;;;;5067439;28;20036;-60
2023/12/07 12:19:54;;;;;;;20.63;15.83;;;;;;;;;;5065926;28;20021;-59
2023/12/07 12:22:20;;;;;;;24.15;19.45;;;;;;;;;;5073096;28;20021;-60
2023/12/07 12:24:47;;;;;;;24.50;19.42;;;;;;;;;;5073045;28;20058;-60
2023/12/07 12:27:13;;;;;;;26.50;19.50;;;;;;;;;;5072773;28;20029;-60
2023/12/07 12:29:40;;;;;;;26.23;19.45;;;;;;;;;;5072770;28;20054;-59
2023/12/07 12:32:06;;;;;;;24.90;19.48;;;;;;;;;;5072452;28;20092;-59
2023/12/07 12:34:35;;;;;;;27.33;21.45;;;;;;;;;;5059550;28;20024;-59
2023/12/07 12:37:01;;;;;;;25.67;20.73;;;;;;;;;;5071474;28;20039;-59
2023/12/07 12:39:31;;;;;;;39.37;28.10;;;;;;;;;;5071233;28;20053;-59
2023/12/07 12:41:59;;;;;;;24.93;20.87;;;;;;;;;;5072709;28;20416;-60
2023/12/07 12:44:25;;;;;;;29.45;22.25;;;;;;;;;;5070135;28;20124;-60
2023/12/07 12:46:51;;;;;;;30.48;23.00;;;;;;;;;;5073077;28;20361;-59
2023/12/07 12:49:17;;;;;;;28.15;21.83;;;;;;;;;;5072168;28;20492;-60
2023/12/07 12:51:44;;;;;;;27.33;21.25;;;;;;;;;;5071956;28;20096;-60
2023/12/07 12:54:11;;;;;;;28.85;21.45;;;;;;;;;;5071009;28;20127;-60
2023/12/07 12:56:37;;;;;;;29.42;23.73;;;;;;;;;;5072329;28;20016;-60
2023/12/07 12:59:03;;;;;;;25.83;21.02;;;;;;;;;;5071029;28;20021;-60
2023/12/07 13:01:29;;;;;;;28.52;22.98;;;;;;;;;;5072105;28;20020;-59
2023/12/07 13:03:56;;;;;;;29.05;23.00;;;;;;;;;;5065994;28;20029;-60
2023/12/07 13:06:22;;;;;;;27.10;22.77;;;;;;;;;;5065015;28;20024;-59
2023/12/07 13:08:48;;;;;;;26.10;22.45;;;;;;;;;;5072220;28;20032;-60
2023/12/07 13:11:18;;;;;;;27.70;21.70;;;;;;;;;;5068718;28;20474;-59
2023/12/07 13:13:45;;;;;;;30.95;23.70;;;;;;;;;;5069492;28;20016;-59
2023/12/07 13:16:14;;;;;;;27.80;22.48;;;;;;;;;;5072232;28;20092;-60
2023/12/07 13:18:40;;;;;;;26.70;22.40;;;;;;;;;;5058008;28;20383;-59
2023/12/07 13:21:07;;;;;;;28.23;22.13;;;;;;;;;;5072233;28;20095;-60
2023/12/07 13:23:32;;;;;;;29.40;22.63;;;;;;;;;;5072317;28;20032;-60
2023/12/07 13:25:58;;;;;;;29.02;22.45;;;;;;;;;;5071847;28;20020;-60
2023/12/07 13:28:25;;;;;;;31.45;23.95;;;;;;;;;;5072186;28;20119;-60
2023/12/07 13:30:51;;;;;;;26.23;22.52;;;;;;;;;;5063258;28;20016;-60
2023/12/07 13:33:17;;;;;;;26.88;23.10;;;;;;;;;;5070044;28;20025;-59
2023/12/07 13:35:43;;;;;;;28.58;22.67;;;;;;;;;;5069240;28;20032;-59
2023/12/07 13:38:09;;;;;;;28.77;23.77;;;;;;;;;;5069295;28;20029;-59
2023/12/07 13:40:37;;;;;;;33.60;24.48;;;;;;;;;;5070573;28;20477;-59
2023/12/07 13:43:03;;;;;;;28.73;23.98;;;;;;;;;;5068777;28;20056;-60
2023/12/07 13:45:29;;;;;;;31.42;25.38;;;;;;;;;;5065205;28;20021;-59
2023/12/07 13:47:55;;;;;;;31.13;26.50;;;;;;;;;;5066972;28;20539;-59
2023/12/07 13:50:22;;;;;;;30.60;25.70;;;;;;;;;;5071496;28;20074;-60
2023/12/07 13:52:48;;;;;;;30.65;24.98;;;;;;;;;;5071510;28;20023;-59
2023/12/07 13:55:14;;;;;;;30.52;25.58;;;;;;;;;;5071626;28;20021;-59
2023/12/07 13:57:41;;;;;;;30.30;24.52;;;;;;;;;;5075227;28;20028;-60
2023/12/07 14:00:12;;;;;;;31.73;25.20;;;;;;;;;;5075693;28;20355;-59
2023/12/07 14:02:38;;;;;;;36.22;27.20;;;;;;;;;;5075425;28;20110;-59
2023/12/07 14:05:04;;;;;;;31.35;25.80;;;;;;;;;;5075619;28;20108;-59
2023/12/07 14:07:31;;;;;;;28.67;25.58;;;;;;;;;;5075501;28;20454;-59
2023/12/07 14:09:57;;;;;;;33.40;26.63;;;;;;;;;;5075384;28;20147;-60